sensor_id;sensor_type;location;lat;lon;timestamp;pressure;altitude;pressure_sealevel;temperature;humidity
81354;BME280;70810;52.038;8.524;2024-02-04T00:01:02;100846.03;;;8.14;98.35
81354;BME280;70810;52.038;8.524;2024-02-04T00:03:30;100837.31;;;8.08;98.20
81354;BME280;70810;52.038;8.524;2024-02-04T00:05:57;100833.75;;;8.09;98.00
81354;BME280;70810;52.038;8.524;2024-02-04T00:08:27;100836.28;;;8.13;97.73
81354;BME280;70810;52.038;8.524;2024-02-04T00:10:56;100840.13;;;8.05;97.63
81354;BME280;70810;52.038;8.524;2024-02-04T00:13:25;100836.78;;;7.96;97.50
81354;BME280;70810;52.038;8.524;2024-02-04T00:15:53;100854.41;;;8.02;97.19
81354;BME280;70810;52.038;8.524;2024-02-04T00:18:28;100853.16;;;8.15;97.49
81354;BME280;70810;52.038;8.524;2024-02-04T00:20:57;100842.41;;;8.17;97.22
81354;BME280;70810;52.038;8.524;2024-02-04T00:23:25;100824.41;;;8.24;96.39
81354;BME280;70810;52.038;8.524;2024-02-04T00:25:52;100825.34;;;8.21;96.12
81354;BME280;70810;52.038;8.524;2024-02-04T00:28:18;100831.78;;;8.15;96.49
81354;BME280;70810;52.038;8.524;2024-02-04T00:30:48;100825.34;;;8.21;96.60
81354;BME280;70810;52.038;8.524;2024-02-04T00:33:16;100833.66;;;8.12;96.79
81354;BME280;70810;52.038;8.524;2024-02-04T00:35:46;100828.22;;;8.15;96.75
81354;BME280;70810;52.038;8.524;2024-02-04T00:38:12;100819.38;;;8.13;96.67
81354;BME280;70810;52.038;8.524;2024-02-04T00:40:40;100812.19;;;8.15;95.95
81354;BME280;70810;52.038;8.524;2024-02-04T00:43:07;100815.88;;;8.11;96.19
81354;BME280;70810;52.038;8.524;2024-02-04T00:45:34;100810.41;;;8.15;96.66
81354;BME280;70810;52.038;8.524;2024-02-04T00:48:04;100794.38;;;8.15;96.43
81354;BME280;70810;52.038;8.524;2024-02-04T00:50:31;100793.38;;;8.18;95.68
81354;BME280;70810;52.038;8.524;2024-02-04T00:52:58;100800.34;;;8.24;96.21
81354;BME280;70810;52.038;8.524;2024-02-04T00:55:26;100804.66;;;8.28;95.59
81354;BME280;70810;52.038;8.524;2024-02-04T00:57:53;100791.38;;;8.25;95.50
81354;BME280;70810;52.038;8.524;2024-02-04T01:00:21;100775.53;;;8.20;95.38
81354;BME280;70810;52.038;8.524;2024-02-04T01:02:47;100794.88;;;8.28;95.36
81354;BME280;70810;52.038;8.524;2024-02-04T01:05:18;100784.22;;;8.27;96.07
81354;BME280;70810;52.038;8.524;2024-02-04T01:07:48;100789.56;;;8.27;96.17
81354;BME280;70810;52.038;8.524;2024-02-04T01:10:15;100780.56;;;8.29;96.36
81354;BME280;70810;52.038;8.524;2024-02-04T01:12:49;100785.09;;;8.27;96.47
81354;BME280;70810;52.038;8.524;2024-02-04T01:15:16;100772.47;;;8.32;96.96
81354;BME280;70810;52.038;8.524;2024-02-04T01:17:43;100782.56;;;8.22;96.35
81354;BME280;70810;52.038;8.524;2024-02-04T01:20:11;100781.66;;;8.24;97.74
81354;BME280;70810;52.038;8.524;2024-02-04T01:22:42;100774.44;;;8.26;97.38
81354;BME280;70810;52.038;8.524;2024-02-04T01:25:09;100782.28;;;8.32;97.69
81354;BME280;70810;52.038;8.524;2024-02-04T01:27:36;100769.16;;;8.24;97.81
81354;BME280;70810;52.038;8.524;2024-02-04T01:30:03;100780.66;;;8.26;98.66
81354;BME280;70810;52.038;8.524;2024-02-04T01:32:31;100779.84;;;8.24;99.34
81354;BME280;70810;52.038;8.524;2024-02-04T01:34:59;100781.28;;;8.34;99.38
81354;BME280;70810;52.038;8.524;2024-02-04T01:37:27;100773.53;;;8.27;99.63
81354;BME280;70810;52.038;8.524;2024-02-04T01:39:55;100779.88;;;8.22;100.00
81354;BME280;70810;52.038;8.524;2024-02-04T01:42:23;100778.84;;;8.28;100.00
81354;BME280;70810;52.038;8.524;2024-02-04T01:44:52;100774.25;;;8.32;100.00
81354;BME280;70810;52.038;8.524;2024-02-04T01:47:20;100761.69;;;8.35;100.00
81354;BME280;70810;52.038;8.524;2024-02-04T01:50:01;100759.06;;;8.34;100.00
81354;BME280;70810;52.038;8.524;2024-02-04T01:52:46;100761.59;;;8.38;100.00
81354;BME280;70810;52.038;8.524;2024-02-04T01:55:17;100749.31;;;8.31;100.00
81354;BME280;70810;52.038;8.524;2024-02-04T01:57:44;100746.38;;;8.40;100.00
81354;BME280;70810;52.038;8.524;2024-02-04T02:00:12;100741.88;;;8.43;100.00
81354;BME280;70810;52.038;8.524;2024-02-04T02:02:40;100742.44;;;8.52;100.00
81354;BME280;70810;52.038;8.524;2024-02-04T02:05:07;100744.13;;;8.55;100.00
81354;BME280;70810;52.038;8.524;2024-02-04T02:07:34;100733.47;;;8.53;100.00
81354;BME280;70810;52.038;8.524;2024-02-04T02:10:01;100759.88;;;8.64;100.00
81354;BME280;70810;52.038;8.524;2024-02-04T02:12:36;100770.50;;;8.67;100.00
81354;BME280;70810;52.038;8.524;2024-02-04T02:15:10;100779.47;;;8.65;100.00
81354;BME280;70810;52.038;8.524;2024-02-04T02:17:44;100768.69;;;8.68;100.00
81354;BME280;70810;52.038;8.524;2024-02-04T02:20:21;100777.75;;;8.62;100.00
81354;BME280;70810;52.038;8.524;2024-02-04T02:22:49;100781.34;;;8.63;100.00
81354;BME280;70810;52.038;8.524;2024-02-04T02:25:20;100768.00;;;8.61;100.00
81354;BME280;70810;52.038;8.524;2024-02-04T02:27:48;100758.28;;;8.58;100.00
81354;BME280;70810;52.038;8.524;2024-02-04T02:30:15;100755.50;;;8.62;100.00
81354;BME280;70810;52.038;8.524;2024-02-04T02:32:47;100759.72;;;8.69;100.00
81354;BME280;70810;52.038;8.524;2024-02-04T02:35:15;100761.66;;;8.64;100.00
81354;BME280;70810;52.038;8.524;2024-02-04T02:37:46;100754.69;;;8.59;100.00
81354;BME280;70810;52.038;8.524;2024-02-04T02:40:28;100751.25;;;8.56;100.00
81354;BME280;70810;52.038;8.524;2024-02-04T02:42:57;100754.63;;;8.61;100.00
81354;BME280;70810;52.038;8.524;2024-02-04T02:45:26;100744.19;;;8.53;100.00
81354;BME280;70810;52.038;8.524;2024-02-04T02:47:54;100755.59;;;8.58;100.00
81354;BME280;70810;52.038;8.524;2024-02-04T02:50:21;100739.69;;;8.55;100.00
81354;BME280;70810;52.038;8.524;2024-02-04T02:52:48;100744.91;;;8.58;100.00
81354;BME280;70810;52.038;8.524;2024-02-04T02:55:15;100740.69;;;8.51;100.00
81354;BME280;70810;52.038;8.524;2024-02-04T02:57:44;100729.19;;;8.49;100.00
81354;BME280;70810;52.038;8.524;2024-02-04T03:00:12;100725.41;;;8.55;100.00
81354;BME280;70810;52.038;8.524;2024-02-04T03:02:39;100733.59;;;8.50;100.00
81354;BME280;70810;52.038;8.524;2024-02-04T03:05:06;100742.63;;;8.46;100.00
81354;BME280;70810;52.038;8.524;2024-02-04T03:07:32;100739.16;;;8.44;100.00
81354;BME280;70810;52.038;8.524;2024-02-04T03:09:59;100706.91;;;8.20;100.00
81354;BME280;70810;52.038;8.524;2024-02-04T03:12:26;100724.22;;;8.37;100.00
81354;BME280;70810;52.038;8.524;2024-02-04T03:14:54;100730.31;;;8.40;100.00
81354;BME280;70810;52.038;8.524;2024-02-04T03:17:21;100709.06;;;8.36;99.75
81354;BME280;70810;52.038;8.524;2024-02-04T03:19:48;100732.75;;;8.48;99.24
81354;BME280;70810;52.038;8.524;2024-02-04T03:22:17;100724.59;;;8.53;98.39
81354;BME280;70810;52.038;8.524;2024-02-04T03:24:43;100726.13;;;8.60;98.54
81354;BME280;70810;52.038;8.524;2024-02-04T03:27:10;100731.56;;;8.57;97.90
81354;BME280;70810;52.038;8.524;2024-02-04T03:29:37;100727.19;;;8.56;98.04
81354;BME280;70810;52.038;8.524;2024-02-04T03:32:06;100731.44;;;8.62;97.91
81354;BME280;70810;52.038;8.524;2024-02-04T03:34:33;100733.53;;;8.52;98.05
81354;BME280;70810;52.038;8.524;2024-02-04T03:37:01;100735.53;;;8.45;99.16
81354;BME280;70810;52.038;8.524;2024-02-04T03:39:28;100733.59;;;8.50;98.54
81354;BME280;70810;52.038;8.524;2024-02-04T03:41:54;100729.56;;;8.37;98.94
81354;BME280;70810;52.038;8.524;2024-02-04T03:44:21;100729.44;;;8.40;98.46
81354;BME280;70810;52.038;8.524;2024-02-04T03:46:48;100711.84;;;8.33;98.92
81354;BME280;70810;52.038;8.524;2024-02-04T03:49:18;100700.56;;;8.23;98.43
81354;BME280;70810;52.038;8.524;2024-02-04T03:51:44;100704.22;;;8.20;98.61
81354;BME280;70810;52.038;8.524;2024-02-04T03:54:11;100716.69;;;8.21;98.80
81354;BME280;70810;52.038;8.524;2024-02-04T03:56:38;100720.25;;;8.20;99.29
81354;BME280;70810;52.038;8.524;2024-02-04T03:59:05;100722.75;;;8.27;99.57
81354;BME280;70810;52.038;8.524;2024-02-04T04:01:34;100727.06;;;8.31;99.75
81354;BME280;70810;52.038;8.524;2024-02-04T04:04:01;100723.66;;;8.26;99.02
81354;BME280;70810;52.038;8.524;2024-02-04T04:06:30;100705.72;;;8.29;99.54
81354;BME280;70810;52.038;8.524;2024-02-04T04:08:56;100722.25;;;8.42;100.00
81354;BME280;70810;52.038;8.524;2024-02-04T04:11:24;100721.34;;;8.43;98.28
81354;BME280;70810;52.038;8.524;2024-02-04T04:13:51;100720.47;;;8.43;98.44
81354;BME280;70810;52.038;8.524;2024-02-04T04:16:20;100721.16;;;8.49;97.57
81354;BME280;70810;52.038;8.524;2024-02-04T04:18:47;100730.94;;;8.50;96.79
81354;BME280;70810;52.038;8.524;2024-02-04T04:21:14;100714.81;;;8.52;97.31
81354;BME280;70810;52.038;8.524;2024-02-04T04:23:42;100719.97;;;8.58;96.36
81354;BME280;70810;52.038;8.524;2024-02-04T04:26:09;100724.84;;;8.45;95.95
81354;BME280;70810;52.038;8.524;2024-02-04T04:28:35;100742.59;;;8.48;96.34
81354;BME280;70810;52.038;8.524;2024-02-04T04:31:02;100737.38;;;8.43;95.42
81354;BME280;70810;52.038;8.524;2024-02-04T04:33:29;100742.69;;;8.45;91.74
81354;BME280;70810;52.038;8.524;2024-02-04T04:35:56;100735.34;;;8.51;90.65
81354;BME280;70810;52.038;8.524;2024-02-04T04:38:23;100742.44;;;8.52;89.19
81354;BME280;70810;52.038;8.524;2024-02-04T04:40:51;100750.47;;;8.52;90.46
81354;BME280;70810;52.038;8.524;2024-02-04T04:43:18;100737.25;;;8.48;91.22
81354;BME280;70810;52.038;8.524;2024-02-04T04:45:44;100739.81;;;8.51;91.40
81354;BME280;70810;52.038;8.524;2024-02-04T04:48:11;100738.00;;;8.51;90.86
81354;BME280;70810;52.038;8.524;2024-02-04T04:50:38;100714.94;;;8.49;90.20
81354;BME280;70810;52.038;8.524;2024-02-04T04:53:05;100724.56;;;8.54;89.80
81354;BME280;70810;52.038;8.524;2024-02-04T04:55:31;100721.25;;;8.46;91.22
81354;BME280;70810;52.038;8.524;2024-02-04T04:57:59;100709.59;;;8.49;89.82
81354;BME280;70810;52.038;8.524;2024-02-04T05:00:26;100723.63;;;8.55;90.21
81354;BME280;70810;52.038;8.524;2024-02-04T05:02:55;100720.13;;;8.53;88.72
81354;BME280;70810;52.038;8.524;2024-02-04T05:05:22;100713.75;;;8.57;88.48
81354;BME280;70810;52.038;8.524;2024-02-04T05:07:49;100730.72;;;8.56;88.87
81354;BME280;70810;52.038;8.524;2024-02-04T05:10:16;100727.94;;;8.59;87.97
81354;BME280;70810;52.038;8.524;2024-02-04T05:12:50;100731.66;;;8.55;89.27
81354;BME280;70810;52.038;8.524;2024-02-04T05:15:18;100735.97;;;8.59;89.06
81354;BME280;70810;52.038;8.524;2024-02-04T05:17:48;100726.41;;;8.52;89.19
81354;BME280;70810;52.038;8.524;2024-02-04T05:20:15;100697.09;;;8.49;88.81
81354;BME280;70810;52.038;8.524;2024-02-04T05:22:42;100712.09;;;8.53;88.34
81354;BME280;70810;52.038;8.524;2024-02-04T05:25:09;100717.19;;;8.61;88.47
81354;BME280;70810;52.038;8.524;2024-02-04T05:27:35;100716.53;;;8.54;88.69
81354;BME280;70810;52.038;8.524;2024-02-04T05:30:03;100704.28;;;8.47;88.62
81354;BME280;70810;52.038;8.524;2024-02-04T05:32:31;100728.31;;;8.49;88.88
81354;BME280;70810;52.038;8.524;2024-02-04T05:34:58;100724.56;;;8.54;89.73
81354;BME280;70810;52.038;8.524;2024-02-04T05:37:25;100723.69;;;8.54;88.58
81354;BME280;70810;52.038;8.524;2024-02-04T05:39:51;100717.34;;;8.56;89.19
81354;BME280;70810;52.038;8.524;2024-02-04T05:42:18;100728.03;;;8.56;88.26
81354;BME280;70810;52.038;8.524;2024-02-04T05:44:45;100709.47;;;8.52;87.36
81354;BME280;70810;52.038;8.524;2024-02-04T05:47:12;100699.56;;;8.55;88.27
81354;BME280;70810;52.038;8.524;2024-02-04T05:49:41;100696.91;;;8.55;86.99
81354;BME280;70810;52.038;8.524;2024-02-04T05:52:08;100696.91;;;8.55;86.07
81354;BME280;70810;52.038;8.524;2024-02-04T05:54:37;100695.28;;;8.50;85.91
81354;BME280;70810;52.038;8.524;2024-02-04T05:57:04;100689.94;;;8.50;85.37
81354;BME280;70810;52.038;8.524;2024-02-04T05:59:31;100705.03;;;8.52;86.09
81354;BME280;70810;52.038;8.524;2024-02-04T06:01:58;100715.84;;;8.48;86.08
81354;BME280;70810;52.038;8.524;2024-02-04T06:04:25;100700.09;;;8.38;85.36
81354;BME280;70810;52.038;8.524;2024-02-04T06:06:53;100701.06;;;8.36;85.84
81354;BME280;70810;52.038;8.524;2024-02-04T06:09:20;100699.25;;;8.36;84.93
81354;BME280;70810;52.038;8.524;2024-02-04T06:11:46;100676.34;;;8.29;85.28
81354;BME280;70810;52.038;8.524;2024-02-04T06:14:13;100661.34;;;8.25;85.51
81354;BME280;70810;52.038;8.524;2024-02-04T06:16:40;100681.78;;;8.26;85.28
81354;BME280;70810;52.038;8.524;2024-02-04T06:19:07;100679.81;;;8.31;85.49
81354;BME280;70810;52.038;8.524;2024-02-04T06:21:34;100680.91;;;8.26;85.33
81354;BME280;70810;52.038;8.524;2024-02-04T06:24:02;100689.88;;;8.23;85.65
81354;BME280;70810;52.038;8.524;2024-02-04T06:26:29;100697.81;;;8.26;85.79
81354;BME280;70810;52.038;8.524;2024-02-04T06:28:55;100693.34;;;8.27;86.26
81354;BME280;70810;52.038;8.524;2024-02-04T06:31:22;100699.47;;;8.30;85.40
81354;BME280;70810;52.038;8.524;2024-02-04T06:33:48;100694.19;;;8.29;86.04
81354;BME280;70810;52.038;8.524;2024-02-04T06:36:16;100682.53;;;8.30;86.03
81354;BME280;70810;52.038;8.524;2024-02-04T06:38:43;100676.22;;;8.32;86.78
81354;BME280;70810;52.038;8.524;2024-02-04T06:41:11;100674.53;;;8.30;86.55
81354;BME280;70810;52.038;8.524;2024-02-04T06:43:39;100670.13;;;8.29;86.96
81354;BME280;70810;52.038;8.524;2024-02-04T06:46:05;100661.81;;;8.36;85.68
81354;BME280;70810;52.038;8.524;2024-02-04T06:48:32;100646.72;;;8.35;86.39
81354;BME280;70810;52.038;8.524;2024-02-04T06:50:59;100636.91;;;8.36;85.91
81354;BME280;70810;52.038;8.524;2024-02-04T06:53:27;100617.28;;;8.37;86.23
81354;BME280;70810;52.038;8.524;2024-02-04T06:55:53;100630.44;;;8.43;86.67
81354;BME280;70810;52.038;8.524;2024-02-04T06:58:22;100633.88;;;8.47;86.29
81354;BME280;70810;52.038;8.524;2024-02-04T07:00:48;100638.22;;;8.51;86.36
81354;BME280;70810;52.038;8.524;2024-02-04T07:03:15;100642.81;;;8.47;87.45
81354;BME280;70810;52.038;8.524;2024-02-04T07:05:50;100644.72;;;8.42;87.98
81354;BME280;70810;52.038;8.524;2024-02-04T07:08:17;100659.00;;;8.43;87.79
81354;BME280;70810;52.038;8.524;2024-02-04T07:10:44;100667.00;;;8.43;88.80
81354;BME280;70810;52.038;8.524;2024-02-04T07:13:10;100654.41;;;8.46;87.98
81354;BME280;70810;52.038;8.524;2024-02-04T07:15:39;100662.44;;;8.46;88.51
81354;BME280;70810;52.038;8.524;2024-02-04T07:18:06;100652.56;;;8.48;87.14
81354;BME280;70810;52.038;8.524;2024-02-04T07:20:33;100651.91;;;8.40;87.11
81354;BME280;70810;52.038;8.524;2024-02-04T07:22:59;100662.97;;;8.29;88.02
81354;BME280;70810;52.038;8.524;2024-02-04T07:25:26;100658.63;;;8.27;87.74
81354;BME280;70810;52.038;8.524;2024-02-04T07:27:53;100652.97;;;8.08;88.84
81354;BME280;70810;52.038;8.524;2024-02-04T07:30:22;100667.13;;;8.11;90.28
81354;BME280;70810;52.038;8.524;2024-02-04T07:32:51;100653.25;;;8.00;91.34
81354;BME280;70810;52.038;8.524;2024-02-04T07:35:19;100652.19;;;8.04;91.86
81354;BME280;70810;52.038;8.524;2024-02-04T07:37:47;100623.28;;;7.90;92.15
81354;BME280;70810;52.038;8.524;2024-02-04T07:40:14;100647.81;;;8.03;91.18
81354;BME280;70810;52.038;8.524;2024-02-04T07:42:41;100654.97;;;8.01;91.44
81354;BME280;70810;52.038;8.524;2024-02-04T07:45:09;100663.06;;;7.99;91.70
81354;BME280;70810;52.038;8.524;2024-02-04T07:47:35;100648.75;;;8.00;91.46
81354;BME280;70810;52.038;8.524;2024-02-04T07:50:05;100666.63;;;7.98;90.34
81354;BME280;70810;52.038;8.524;2024-02-04T07:52:31;100654.91;;;8.02;89.21
81354;BME280;70810;52.038;8.524;2024-02-04T07:54:58;100648.72;;;8.02;89.41
81354;BME280;70810;52.038;8.524;2024-02-04T07:57:25;100659.50;;;7.99;89.03
81354;BME280;70810;52.038;8.524;2024-02-04T07:59:52;100655.09;;;7.98;87.17
81354;BME280;70810;52.038;8.524;2024-02-04T08:02:18;100660.31;;;8.01;86.01
81354;BME280;70810;52.038;8.524;2024-02-04T08:04:45;100657.81;;;7.96;82.84
81354;BME280;70810;52.038;8.524;2024-02-04T08:07:13;100665.59;;;8.02;82.07
81354;BME280;70810;52.038;8.524;2024-02-04T08:09:42;100668.31;;;8.01;80.48
81354;BME280;70810;52.038;8.524;2024-02-04T08:12:09;100657.53;;;8.04;79.78
81354;BME280;70810;52.038;8.524;2024-02-04T08:14:36;100645.28;;;7.98;80.44
81354;BME280;70810;52.038;8.524;2024-02-04T08:17:03;100635.44;;;7.99;79.74
81354;BME280;70810;52.038;8.524;2024-02-04T08:19:32;100642.56;;;8.00;79.97
81354;BME280;70810;52.038;8.524;2024-02-04T08:22:03;100652.47;;;7.96;79.72
81354;BME280;70810;52.038;8.524;2024-02-04T08:24:35;100635.72;;;7.91;81.07
81354;BME280;70810;52.038;8.524;2024-02-04T08:27:04;100631.06;;;7.98;81.71
81354;BME280;70810;52.038;8.524;2024-02-04T08:29:31;100639.34;;;7.89;81.25
81354;BME280;70810;52.038;8.524;2024-02-04T08:31:57;100651.78;;;7.90;82.11
81354;BME280;70810;52.038;8.524;2024-02-04T08:34:24;100641.53;;;7.76;82.74
81354;BME280;70810;52.038;8.524;2024-02-04T08:36:51;100652.75;;;7.87;82.23
81354;BME280;70810;52.038;8.524;2024-02-04T08:39:19;100652.91;;;7.82;82.23
81354;BME280;70810;52.038;8.524;2024-02-04T08:42:04;100647.34;;;7.89;82.50
81354;BME280;70810;52.038;8.524;2024-02-04T08:44:51;100646.44;;;7.90;82.27
81354;BME280;70810;52.038;8.524;2024-02-04T08:47:39;100648.84;;;7.97;81.79
81354;BME280;70810;52.038;8.524;2024-02-04T08:50:22;100645.50;;;7.91;81.21
81354;BME280;70810;52.038;8.524;2024-02-04T08:52:49;100656.72;;;8.02;80.97
81354;BME280;70810;52.038;8.524;2024-02-04T08:55:15;100648.84;;;7.97;80.90
81354;BME280;70810;52.038;8.524;2024-02-04T08:57:44;100654.47;;;7.90;80.25
81354;BME280;70810;52.038;8.524;2024-02-04T09:00:11;100649.94;;;7.92;80.44
81354;BME280;70810;52.038;8.524;2024-02-04T09:02:39;100645.31;;;7.97;80.36
81354;BME280;70810;52.038;8.524;2024-02-04T09:05:07;100649.13;;;7.90;79.90
81354;BME280;70810;52.038;8.524;2024-02-04T09:07:34;100659.53;;;7.97;80.00
81354;BME280;70810;52.038;8.524;2024-02-04T09:10:01;100659.44;;;8.00;79.90
81354;BME280;70810;52.038;8.524;2024-02-04T09:12:28;100623.56;;;7.81;79.28
81354;BME280;70810;52.038;8.524;2024-02-04T09:14:57;100641.47;;;8.06;80.27
81354;BME280;70810;52.038;8.524;2024-02-04T09:17:23;100647.97;;;8.25;78.68
81354;BME280;70810;52.038;8.524;2024-02-04T09:19:50;100652.38;;;8.26;78.28
81354;BME280;70810;52.038;8.524;2024-02-04T09:22:17;100643.59;;;8.22;78.19
81354;BME280;70810;52.038;8.524;2024-02-04T09:24:44;100640.56;;;8.33;76.95
81354;BME280;70810;52.038;8.524;2024-02-04T09:27:11;100639.84;;;8.28;78.97
81354;BME280;70810;52.038;8.524;2024-02-04T09:29:38;100635.75;;;8.45;77.49
81354;BME280;70810;52.038;8.524;2024-02-04T09:32:09;100642.03;;;8.44;77.43
81354;BME280;70810;52.038;8.524;2024-02-04T09:34:39;100647.22;;;8.48;78.23
81354;BME280;70810;52.038;8.524;2024-02-04T09:37:12;100655.13;;;8.51;77.38
81354;BME280;70810;52.038;8.524;2024-02-04T09:39:41;100634.75;;;8.49;77.55
81354;BME280;70810;52.038;8.524;2024-02-04T09:42:08;100623.81;;;8.55;77.98
81354;BME280;70810;52.038;8.524;2024-02-04T09:44:36;100626.00;;;8.44;78.86
81354;BME280;70810;52.038;8.524;2024-02-04T09:47:08;100621.97;;;8.82;79.65
81354;BME280;70810;52.038;8.524;2024-02-04T09:49:36;100634.53;;;8.80;77.11
81354;BME280;70810;52.038;8.524;2024-02-04T09:52:07;100648.38;;;8.66;77.42
81354;BME280;70810;52.038;8.524;2024-02-04T09:54:38;100645.09;;;8.58;77.45
81354;BME280;70810;52.038;8.524;2024-02-04T09:57:07;100650.81;;;8.47;78.50
81354;BME280;70810;52.038;8.524;2024-02-04T09:59:34;100657.84;;;8.50;79.00
81354;BME280;70810;52.038;8.524;2024-02-04T10:02:03;100643.06;;;8.38;78.85
81354;BME280;70810;52.038;8.524;2024-02-04T10:04:31;100641.91;;;8.47;79.12
81354;BME280;70810;52.038;8.524;2024-02-04T10:06:59;100643.66;;;8.48;79.47
81354;BME280;70810;52.038;8.524;2024-02-04T10:09:27;100643.63;;;8.49;79.39
81354;BME280;70810;52.038;8.524;2024-02-04T10:11:55;100642.06;;;8.42;78.84
81354;BME280;70810;52.038;8.524;2024-02-04T10:14:22;100659.00;;;8.43;79.21
81354;BME280;70810;52.038;8.524;2024-02-04T10:16:50;100656.53;;;8.35;79.21
81354;BME280;70810;52.038;8.524;2024-02-04T10:19:17;100632.94;;;8.21;79.88
81354;BME280;70810;52.038;8.524;2024-02-04T10:21:46;100654.09;;;8.29;80.77
81354;BME280;70810;52.038;8.524;2024-02-04T10:24:12;100645.50;;;8.19;81.30
81354;BME280;70810;52.038;8.524;2024-02-04T10:26:39;100638.16;;;8.26;82.83
81354;BME280;70810;52.038;8.524;2024-02-04T10:29:10;100607.59;;;8.33;82.49
81354;BME280;70810;52.038;8.524;2024-02-04T10:31:39;100633.50;;;8.59;80.81
81354;BME280;70810;52.038;8.524;2024-02-04T10:34:07;100635.28;;;8.58;80.92
81354;BME280;70810;52.038;8.524;2024-02-04T10:36:39;100632.50;;;8.62;80.01
81354;BME280;70810;52.038;8.524;2024-02-04T10:39:15;100638.59;;;8.65;80.07
81354;BME280;70810;52.038;8.524;2024-02-04T10:41:50;100642.38;;;8.59;79.65
81354;BME280;70810;52.038;8.524;2024-02-04T10:44:25;100645.91;;;8.60;78.97
81354;BME280;70810;52.038;8.524;2024-02-04T10:47:21;100652.97;;;8.63;79.50
81354;BME280;70810;52.038;8.524;2024-02-04T10:49:52;100651.09;;;8.65;79.68
81354;BME280;70810;52.038;8.524;2024-02-04T10:52:20;100661.97;;;8.60;79.65
81354;BME280;70810;52.038;8.524;2024-02-04T10:54:52;100673.13;;;8.46;80.47
81354;BME280;70810;52.038;8.524;2024-02-04T10:57:21;100655.84;;;8.56;80.45
81354;BME280;70810;52.038;8.524;2024-02-04T10:59:51;100644.53;;;8.48;80.19
81354;BME280;70810;52.038;8.524;2024-02-04T11:02:20;100648.53;;;8.62;80.47
81354;BME280;70810;52.038;8.524;2024-02-04T11:04:48;100649.25;;;8.67;79.87
81354;BME280;70810;52.038;8.524;2024-02-04T11:07:25;100640.91;;;8.76;79.46
81354;BME280;70810;52.038;8.524;2024-02-04T11:09:57;100638.00;;;9.07;79.38
81354;BME280;70810;52.038;8.524;2024-02-04T11:12:27;100622.75;;;9.09;78.06
81354;BME280;70810;52.038;8.524;2024-02-04T11:15:01;100626.50;;;9.29;78.50
81354;BME280;70810;52.038;8.524;2024-02-04T11:18:29;100625.31;;;9.36;77.64
81354;BME280;70810;52.038;8.524;2024-02-04T11:21:28;100607.44;;;9.37;77.95
81354;BME280;70810;52.038;8.524;2024-02-04T11:24:11;100612.25;;;9.28;78.55
81354;BME280;70810;52.038;8.524;2024-02-04T11:26:52;100622.41;;;9.19;78.66
81354;BME280;70810;52.038;8.524;2024-02-04T11:29:22;100613.03;;;9.07;79.15
81354;BME280;70810;52.038;8.524;2024-02-04T11:31:54;100597.50;;;8.93;80.48
81354;BME280;70810;52.038;8.524;2024-02-04T11:34:21;100593.13;;;8.90;80.66
81354;BME280;70810;52.038;8.524;2024-02-04T11:36:51;100595.69;;;8.93;81.25
81354;BME280;70810;52.038;8.524;2024-02-04T11:39:19;100587.28;;;8.79;82.35
81354;BME280;70810;52.038;8.524;2024-02-04T11:42:15;100581.50;;;8.91;81.11
81354;BME280;70810;52.038;8.524;2024-02-04T11:44:43;100578.72;;;8.94;82.01
81354;BME280;70810;52.038;8.524;2024-02-04T11:47:11;100578.84;;;8.91;81.77
81354;BME280;70810;52.038;8.524;2024-02-04T11:49:45;100581.19;;;8.75;82.52
81354;BME280;70810;52.038;8.524;2024-02-04T11:52:38;100572.66;;;8.66;83.42
81354;BME280;70810;52.038;8.524;2024-02-04T11:55:14;100572.50;;;8.69;85.83
81354;BME280;70810;52.038;8.524;2024-02-04T11:57:42;100584.16;;;8.68;87.17
81354;BME280;70810;52.038;8.524;2024-02-04T12:00:12;100581.53;;;8.66;87.60
81354;BME280;70810;52.038;8.524;2024-02-04T12:02:39;100580.13;;;8.56;88.70
81354;BME280;70810;52.038;8.524;2024-02-04T12:05:10;100583.09;;;8.47;89.76
81354;BME280;70810;52.038;8.524;2024-02-04T12:07:38;100579.13;;;8.58;89.57
81354;BME280;70810;52.038;8.524;2024-02-04T12:10:06;100579.31;;;8.54;89.17
81354;BME280;70810;52.038;8.524;2024-02-04T12:12:33;100573.00;;;8.55;88.95
81354;BME280;70810;52.038;8.524;2024-02-04T12:15:03;100567.84;;;8.50;89.95
81354;BME280;70810;52.038;8.524;2024-02-04T12:17:30;100568.72;;;8.51;89.62
81354;BME280;70810;52.038;8.524;2024-02-04T12:19:57;100566.00;;;8.52;90.04
81354;BME280;70810;52.038;8.524;2024-02-04T12:22:24;100558.22;;;8.45;90.00
81354;BME280;70810;52.038;8.524;2024-02-04T12:24:52;100566.19;;;8.46;90.62
81354;BME280;70810;52.038;8.524;2024-02-04T12:27:23;100564.34;;;8.48;90.93
81354;BME280;70810;52.038;8.524;2024-02-04T12:29:51;100565.88;;;8.55;91.15
81354;BME280;70810;52.038;8.524;2024-02-04T12:32:19;100564.22;;;8.51;91.35
81354;BME280;70810;52.038;8.524;2024-02-04T12:34:46;100568.41;;;8.58;91.69
81354;BME280;70810;52.038;8.524;2024-02-04T12:37:15;100565.44;;;8.68;91.48
81354;BME280;70810;52.038;8.524;2024-02-04T12:39:42;100545.72;;;8.70;91.72
81354;BME280;70810;52.038;8.524;2024-02-04T12:42:11;100555.53;;;8.70;90.70
81354;BME280;70810;52.038;8.524;2024-02-04T12:44:45;100546.16;;;8.58;91.19
81354;BME280;70810;52.038;8.524;2024-02-04T12:47:20;100545.13;;;8.62;91.92
81354;BME280;70810;52.038;8.524;2024-02-04T12:49:47;100545.13;;;8.62;93.29
81354;BME280;70810;52.038;8.524;2024-02-04T12:52:14;100538.16;;;8.58;92.75
81354;BME280;70810;52.038;8.524;2024-02-04T12:54:41;100528.84;;;8.68;93.72
81354;BME280;70810;52.038;8.524;2024-02-04T12:57:09;100536.19;;;8.63;92.91
81354;BME280;70810;52.038;8.524;2024-02-04T12:59:37;100536.28;;;8.60;93.27
81354;BME280;70810;52.038;8.524;2024-02-04T13:02:07;100529.66;;;8.70;93.79
81354;BME280;70810;52.038;8.524;2024-02-04T13:04:37;100515.22;;;8.76;92.51
81354;BME280;70810;52.038;8.524;2024-02-04T13:07:07;100516.06;;;8.76;91.89
81354;BME280;70810;52.038;8.524;2024-02-04T13:09:34;100524.00;;;8.80;92.00